Ana Sayfa
METAR-TAF:

METAR-TAF

Havaalanları :

Amarillo, Teksas, Amerika Birleşik Devletleri

Enlem: 35-13-12N, Boylam: 101-43-02W, yükseklik: 1099 m

Güncel hava durumu gözlemi

Rapor saat 12:53 UTC de 26 dakika önce yapıldı.
Rüzgar güney/güneydoğudan 10 kt
Sıcaklık 21°C
Nem 83%
Basınç 1012 hPa
Görüş mesafesi: 16.1 km
Açık gökyüzü

METAR: KAMA 161253Z 15010KT 10SM CLR 21/18 A2988 RMK AO2 SLP060 T02110178 $

Saat: 08:19 (13:19 UTC)

Tahmin

Rapor saat 11:20 UTC de 1 saat ve 59 dakika önce yapıldı.
Ayın 16'si saat 12 UTC'den ayın 17'si saat 12 UTC'ye kadar geçerli Tahmin
Rüzgar güneydan 14 kt
Görüş mesafesi: 10 km
Açık gökyüzü
Ayın 16'si saat 1300 UTC'den
Rüzgar güneydan 12 kt
Görüş mesafesi: 10 km
25000 ft yükseklikte az bulutlu
Ayın 16'si saat 2000 UTC'den
Rüzgar güneydan 19 kt ve 29 kt'a kadar ani rüzgarlar
Görüş mesafesi: 10 km
Açık gökyüzü

TAF: KAMA 161120Z 1612/1712 17014KT P6SM SKC FM161300 18012KT P6SM FEW250 FM162000 17019G29KT P6SM SKC

4.000'den fazla havaalanı için hava durumu gözlemleri ve tahminleri (METAR ve TAF raporları).

Kullanılabilir istasyonlar harita üzerinde sarı ve kırmızı noktalarla gösterilir.

İstasyonun adını görmek için fareyi noktanın üzerinde gezdirin.

Sonrasında hava gözlem ve tahminlerini görmek için tıklayın.

Haritayı değiştirmek için: yaklaştırmak için siyah artı işaretli yeşil düğmeye ve uzaklaştırmak için de eksi işaretli düğmeye hızla tıklayın; bitişik haritalar için yeşil okları kullanın.


METAR-TAF: